Time;durP1;ratioP1;P1;durP2;ratioP2;P2;SDS_P1;SDS_P2;PMS_P1;PMS_P2;Temp;Humidity;BMP_temperature;BMP_pressure;BME280_temperature;BME280_humidity;BME280_pressure;Samples;Min_cycle;Max_cycle;Signal;HPM_P1;HPM_P2
2023/04/18 00:01:43;;;;;;;7.80;6.00;;;;;;;7.47;78.75;102036.75;109316;1253;60635;-70
2023/04/18 00:04:10;;;;;;;7.10;5.30;;;;;;;7.45;79.08;102035.65;109359;1253;61416;-71
2023/04/18 00:06:38;;;;;;;8.50;5.90;;;;;;;7.45;79.12;102037.45;109072;1254;74788;-70
2023/04/18 00:09:04;;;;;;;7.50;5.70;;;;;;;7.43;79.53;102040.60;109339;1253;69688;-70
2023/04/18 00:11:31;;;;;;;8.10;5.90;;;;;;;7.39;80.17;102039.14;109233;1253;71491;-71
2023/04/18 00:13:58;;;;;;;7.80;5.70;;;;;;;7.34;80.17;102036.34;109101;1254;59174;-70
2023/04/18 00:16:25;;;;;;;8.30;6.00;;;;;;;7.30;80.44;102033.63;109363;1252;59649;-70
2023/04/18 00:18:53;;;;;;;9.00;6.20;;;;;;;7.29;80.67;102032.17;109210;1254;73171;-70
2023/04/18 00:21:21;;;;;;;8.40;5.90;;;;;;;7.29;80.48;102034.11;109313;1253;71048;-70
2023/04/18 00:23:48;;;;;;;8.70;6.60;;;;;;;7.27;81.14;102031.98;109307;1254;70296;-70
2023/04/18 00:26:14;;;;;;;10.00;7.00;;;;;;;7.23;80.78;102030.48;109318;1254;60896;-71
2023/04/18 00:28:41;;;;;;;10.00;7.10;;;;;;;7.23;80.85;102030.52;109211;1252;59214;-70
2023/04/18 00:31:08;;;;;;;8.90;6.60;;;;;;;7.22;80.38;102031.98;109274;1258;72470;-70
2023/04/18 00:33:34;;;;;;;7.70;6.20;;;;;;;7.23;80.58;102031.92;109366;1254;70425;-70
2023/04/18 00:36:01;;;;;;;9.70;6.40;;;;;;;7.24;80.51;102030.74;109316;1252;71134;-70
2023/04/18 00:38:27;;;;;;;11.90;7.20;;;;;;;7.27;80.27;102029.70;109290;1253;59044;-70
2023/04/18 00:40:54;;;;;;;8.40;6.30;;;;;;;7.26;80.37;102028.69;109242;1253;60329;-70
2023/04/18 00:43:22;;;;;;;10.10;6.70;;;;;;;7.29;80.29;102033.39;109199;1252;74699;-70
2023/04/18 00:45:49;;;;;;;9.40;6.40;;;;;;;7.28;80.97;102031.52;109108;1253;69367;-70
2023/04/18 00:48:17;;;;;;;8.30;6.10;;;;;;;7.26;81.00;102028.20;109348;1253;72421;-70
2023/04/18 00:50:44;;;;;;;10.40;6.50;;;;;;;7.23;81.55;102031.05;109200;1252;59596;-70
2023/04/18 00:53:10;;;;;;;8.00;6.20;;;;;;;7.18;81.80;102027.77;109349;1254;60021;-70
2023/04/18 00:55:38;;;;;;;8.80;6.10;;;;;;;7.14;82.27;102027.55;109270;1253;74597;-70
2023/04/18 00:58:05;;;;;;;8.30;5.80;;;;;;;7.09;82.55;102024.39;109320;1253;69646;-71
2023/04/18 01:00:34;;;;;;;9.20;6.60;;;;;;;7.04;83.22;102020.77;109383;1253;73261;-70
2023/04/18 01:03:01;;;;;;;8.70;6.30;;;;;;;7.01;83.12;102024.67;109307;1256;59633;-70
2023/04/18 01:05:28;;;;;;;9.00;6.70;;;;;;;7.00;83.30;102028.46;109150;1253;60422;-70
2023/04/18 01:07:59;;;;;;;9.60;6.70;;;;;;;6.99;83.25;102031.56;109316;1254;74989;-70
2023/04/18 01:10:27;;;;;;;9.50;6.30;;;;;;;6.94;83.71;102023.77;109264;1254;70339;-70
2023/04/18 01:13:10;;;;;;;12.20;7.20;;;;;;;6.91;83.94;102023.66;109387;1253;70927;-70
2023/04/18 01:15:39;;;;;;;9.80;7.30;;;;;;;6.91;83.50;102024.19;109106;1253;61255;-71
2023/04/18 01:18:07;;;;;;;9.10;6.30;;;;;;;6.91;83.92;102026.46;109137;1253;59375;-70
2023/04/18 01:20:37;;;;;;;9.10;6.50;;;;;;;6.89;84.23;102024.35;109372;1252;73123;-70
2023/04/18 01:23:04;;;;;;;9.80;6.50;;;;;;;6.88;84.23;102021.83;109015;1253;70975;-70
2023/04/18 01:25:31;;;;;;;10.20;7.40;;;;;;;6.85;84.40;102028.38;109351;1252;72931;-70
2023/04/18 01:27:58;;;;;;;9.00;6.50;;;;;;;6.84;84.79;102016.98;109323;1253;60486;-70
2023/04/18 01:30:25;;;;;;;10.00;6.90;;;;;;;6.83;85.11;102016.88;109181;1252;59695;-70
2023/04/18 01:32:52;;;;;;;9.60;6.90;;;;;;;6.83;84.90;102018.16;109091;1253;73456;-70
2023/04/18 01:35:19;;;;;;;10.60;7.20;;;;;;;6.84;84.99;102018.80;109243;1254;70053;-71
2023/04/18 01:37:46;;;;;;;10.80;7.00;;;;;;;6.82;85.53;102015.04;109161;1254;72391;-70
2023/04/18 01:40:13;;;;;;;10.10;7.30;;;;;;;6.81;85.56;102016.88;109213;1254;59680;-70
2023/04/18 01:42:39;;;;;;;10.40;7.30;;;;;;;6.79;86.06;102014.09;109389;1253;59818;-70
2023/04/18 01:45:07;;;;;;;9.20;6.90;;;;;;;6.76;86.18;102011.45;109421;1253;73813;-70
2023/04/18 01:47:34;;;;;;;10.60;7.60;;;;;;;6.72;86.57;102013.20;109110;1252;71463;-70
2023/04/18 01:50:01;;;;;;;10.40;7.50;;;;;;;6.71;86.79;102012.02;109372;1253;72998;-70
2023/04/18 01:52:27;;;;;;;11.60;7.80;;;;;;;6.70;86.84;102011.90;109368;1253;59651;-70
2023/04/18 01:54:54;;;;;;;11.70;8.00;;;;;;;6.70;87.35;102011.77;109411;1253;59135;-71
2023/04/18 01:57:21;;;;;;;11.60;8.70;;;;;;;6.69;87.69;102010.40;109217;1254;74765;-68
2023/04/18 01:59:47;;;;;;;12.40;8.80;;;;;;;6.67;88.11;102011.44;109379;1254;72407;-68
2023/04/18 02:02:14;;;;;;;12.10;9.00;;;;;;;6.65;88.42;102007.93;109258;1252;71443;-68
2023/04/18 02:04:41;;;;;;;13.40;8.40;;;;;;;6.63;89.11;102008.39;109330;1253;59985;-68
2023/04/18 02:07:07;;;;;;;13.20;8.70;;;;;;;6.59;89.70;102010.65;109215;1254;60365;-68
2023/04/18 02:09:34;;;;;;;14.90;10.30;;;;;;;6.56;90.08;102007.55;109332;1253;73557;-71
2023/04/18 02:12:02;;;;;;;13.70;9.90;;;;;;;6.53;90.74;102007.19;109211;1254;70028;-68
2023/04/18 02:14:29;;;;;;;13.30;9.70;;;;;;;6.52;90.77;102003.04;109081;1253;71134;-70
2023/04/18 02:16:57;;;;;;;12.70;9.30;;;;;;;6.51;91.09;102006.45;109096;1253;60397;-68
2023/04/18 02:19:24;;;;;;;13.20;10.00;;;;;;;6.49;91.26;102001.89;109210;1252;60119;-68
2023/04/18 02:21:51;;;;;;;12.80;10.00;;;;;;;6.47;92.50;102004.50;109362;1252;74345;-68
2023/04/18 02:24:17;;;;;;;13.70;9.90;;;;;;;6.43;92.54;102004.80;109388;1253;59722;-68
2023/04/18 02:26:44;;;;;;;13.00;9.80;;;;;;;6.43;92.61;102004.84;109261;1253;70249;-68
2023/04/18 02:29:11;;;;;;;14.10;10.20;;;;;;;6.42;93.37;102001.73;109328;1254;59958;-68
2023/04/18 02:31:39;;;;;;;13.60;9.80;;;;;;;6.39;93.62;102003.51;109355;1252;61212;-69
2023/04/18 02:34:07;;;;;;;13.80;9.80;;;;;;;6.37;93.78;102001.39;109026;1253;401609;-68
2023/04/18 02:36:33;;;;;;;13.30;10.30;;;;;;;6.36;94.03;102002.69;109374;1254;71429;-69
2023/04/18 02:39:00;;;;;;;13.40;10.60;;;;;;;6.35;94.36;102001.06;109230;1252;72271;-69
2023/04/18 02:41:27;;;;;;;15.50;10.50;;;;;;;6.35;94.58;102003.86;109403;1254;61563;-71
2023/04/18 02:43:53;;;;;;;14.30;10.50;;;;;;;6.34;94.78;102006.02;109280;1253;59175;-71
2023/04/18 02:46:20;;;;;;;15.60;11.10;;;;;;;6.34;94.68;102004.09;109370;1253;74632;-70
2023/04/18 02:48:47;;;;;;;15.10;10.80;;;;;;;6.36;94.43;102008.38;109305;1253;70929;-70
2023/04/18 02:51:14;;;;;;;15.00;10.70;;;;;;;6.37;94.72;102004.73;109302;1256;70590;-71
2023/04/18 02:53:41;;;;;;;14.40;10.60;;;;;;;6.39;94.80;102008.68;109303;1253;60021;-70
2023/04/18 02:56:08;;;;;;;13.90;10.20;;;;;;;6.39;94.71;102006.23;109352;1254;60034;-68
2023/04/18 02:58:35;;;;;;;14.50;10.30;;;;;;;6.38;94.36;102008.55;109426;1253;74462;-71
2023/04/18 03:01:02;;;;;;;14.50;10.60;;;;;;;6.37;95.09;102010.88;109217;1254;70973;-68
2023/04/18 03:03:28;;;;;;;14.70;10.20;;;;;;;6.37;94.88;102009.84;109347;1253;71535;-68
2023/04/18 03:05:55;;;;;;;14.30;10.30;;;;;;;6.37;95.02;102012.32;109357;1254;59106;-68
2023/04/18 03:08:22;;;;;;;15.90;10.70;;;;;;;6.37;95.26;102010.39;109022;1253;59491;-68
2023/04/18 03:10:49;;;;;;;14.40;10.50;;;;;;;6.35;95.25;102013.66;109361;1254;75899;-68
2023/04/18 03:13:16;;;;;;;15.60;11.00;;;;;;;6.36;95.11;102019.24;109216;1253;70129;-69
2023/04/18 03:15:42;;;;;;;13.30;10.40;;;;;;;6.36;95.63;102014.80;109226;1252;72964;-68
2023/04/18 03:18:11;;;;;;;14.60;10.40;;;;;;;6.37;95.62;102017.23;109354;1253;60426;-68
2023/04/18 03:20:37;;;;;;;14.80;10.90;;;;;;;6.36;95.68;102022.59;109139;1253;60057;-68
2023/04/18 03:23:04;;;;;;;14.80;11.00;;;;;;;6.37;95.44;102021.46;109326;1254;73456;-69
2023/04/18 03:25:31;;;;;;;15.20;10.80;;;;;;;6.37;95.47;102024.26;109199;1253;71031;-69
2023/04/18 03:27:58;;;;;;;15.40;11.00;;;;;;;6.39;95.43;102023.06;109355;1252;74240;-68
2023/04/18 03:30:25;;;;;;;15.20;11.20;;;;;;;6.40;95.57;102019.27;109372;1253;59999;-68
2023/04/18 03:32:52;;;;;;;16.00;11.20;;;;;;;6.41;95.15;102022.55;109396;1253;59631;-68
2023/04/18 03:35:19;;;;;;;14.60;11.10;;;;;;;6.44;95.24;102023.54;109382;1253;73347;-68
2023/04/18 03:37:46;;;;;;;17.50;11.50;;;;;;;6.46;94.93;102026.02;109446;1253;70765;-68
2023/04/18 03:40:12;;;;;;;17.10;11.90;;;;;;;6.48;95.12;102025.52;109396;1254;72707;-68
2023/04/18 03:42:39;;;;;;;15.30;11.30;;;;;;;6.48;95.14;102029.38;109380;1253;61496;-68
2023/04/18 03:45:06;;;;;;;14.80;10.60;;;;;;;6.48;95.07;102028.38;109437;1252;59819;-68
2023/04/18 03:47:33;;;;;;;16.70;12.10;;;;;;;6.46;95.05;102034.98;109312;1253;73491;-68
2023/04/18 03:50:00;;;;;;;17.40;10.80;;;;;;;6.46;95.21;102031.50;109453;1254;71158;-68
2023/04/18 03:52:26;;;;;;;16.90;11.80;;;;;;;6.45;95.15;102035.39;109253;1254;71563;-68
2023/04/18 03:54:55;;;;;;;16.00;11.60;;;;;;;6.47;95.00;102039.15;109285;1252;60401;-68
2023/04/18 03:57:21;;;;;;;17.30;11.40;;;;;;;6.49;94.86;102040.90;109309;1254;60349;-68
2023/04/18 03:59:48;;;;;;;16.30;11.00;;;;;;;6.53;94.82;102038.71;109224;1253;59108;-68
2023/04/18 04:02:15;;;;;;;15.90;10.70;;;;;;;6.57;94.58;102040.20;109184;1258;71479;-69
2023/04/18 04:04:42;;;;;;;15.40;10.90;;;;;;;6.58;94.41;102039.17;109194;1254;73406;-68
2023/04/18 04:07:09;;;;;;;14.00;10.70;;;;;;;6.58;94.59;102037.48;109234;1253;61054;-68
2023/04/18 04:09:36;;;;;;;16.50;10.90;;;;;;;6.57;94.25;102039.81;109181;1254;60084;-69
2023/04/18 04:12:03;;;;;;;14.70;9.80;;;;;;;6.57;94.25;102036.12;109440;1254;73239;-69
2023/04/18 04:14:29;;;;;;;14.30;10.40;;;;;;;6.57;94.25;102033.31;109422;1254;69802;-69
2023/04/18 04:16:56;;;;;;;14.70;10.50;;;;;;;6.56;94.14;102037.64;109180;1253;70514;-69
2023/04/18 04:19:23;;;;;;;13.40;9.80;;;;;;;6.55;94.15;102039.65;109130;1253;59981;-69
2023/04/18 04:21:50;;;;;;;15.60;10.00;;;;;;;6.55;93.84;102041.40;109060;1254;59990;-69
2023/04/18 04:24:19;;;;;;;13.60;10.50;;;;;;;6.57;93.72;102041.08;109172;1252;73715;-69
2023/04/18 04:26:47;;;;;;;16.20;10.10;;;;;;;6.58;93.62;102043.43;109174;1254;71358;-69
2023/04/18 04:29:15;;;;;;;13.80;9.60;;;;;;;6.57;93.65;102043.36;109342;1254;73752;-71
2023/04/18 04:31:41;;;;;;;13.70;9.90;;;;;;;6.56;93.68;102044.52;109291;1254;61124;-70
2023/04/18 04:34:08;;;;;;;15.00;9.80;;;;;;;6.56;93.80;102044.98;109293;1254;59414;-70
2023/04/18 04:36:35;;;;;;;13.30;9.80;;;;;;;6.56;93.73;102049.02;109409;1254;72695;-70
2023/04/18 04:39:03;;;;;;;13.40;9.50;;;;;;;6.56;93.48;102057.13;109425;1254;68996;-71
2023/04/18 04:41:30;;;;;;;18.10;11.20;;;;;;;6.56;93.48;102061.52;109405;1252;71424;-70
2023/04/18 04:43:58;;;;;;;13.80;9.90;;;;;;;6.60;93.32;102058.73;109235;1254;60389;-70
2023/04/18 04:46:29;;;;;;;13.00;9.90;;;;;;;6.62;93.20;102059.30;109424;1253;58969;-70
2023/04/18 04:48:56;;;;;;;13.70;9.70;;;;;;;6.63;92.96;102055.67;109424;1253;74090;-70
2023/04/18 04:51:23;;;;;;;15.40;10.00;;;;;;;6.67;92.73;102055.80;109136;1254;70097;-70
2023/04/18 04:53:50;;;;;;;14.40;10.20;;;;;;;6.69;92.61;102057.91;109425;1254;72753;-70
2023/04/18 04:56:17;;;;;;;14.40;9.60;;;;;;;6.68;92.20;102056.52;109352;1256;60944;-70
2023/04/18 04:58:47;;;;;;;14.40;9.70;;;;;;;6.69;92.30;102063.82;109280;1254;58968;-71
2023/04/18 05:01:15;;;;;;;13.80;9.40;;;;;;;6.72;92.06;102064.48;109192;1254;74371;-71
2023/04/18 05:03:42;;;;;;;11.60;8.90;;;;;;;6.75;91.95;102066.90;109383;1256;72481;-71
2023/04/18 05:06:09;;;;;;;13.10;9.60;;;;;;;6.77;91.79;102066.65;109408;1256;71514;-71
2023/04/18 05:08:36;;;;;;;13.40;9.10;;;;;;;6.79;91.61;102071.04;109232;1254;62255;-71
2023/04/18 05:11:02;;;;;;;13.30;9.10;;;;;;;6.79;91.49;102071.56;109200;1254;60555;-71
2023/04/18 05:13:29;;;;;;;13.20;8.70;;;;;;;6.82;91.24;102076.45;109443;1254;74982;-71
2023/04/18 05:15:58;;;;;;;12.60;9.70;;;;;;;6.83;91.09;102076.87;109359;1252;59173;-71
2023/04/18 05:18:24;;;;;;;12.90;9.40;;;;;;;6.82;91.01;102076.04;109408;1253;71608;-71
2023/04/18 05:20:51;;;;;;;14.20;9.20;;;;;;;6.85;90.79;102080.78;109430;1252;62095;-71
2023/04/18 05:23:18;;;;;;;11.30;8.60;;;;;;;6.87;90.60;102084.25;109379;1253;59348;-71
2023/04/18 05:25:45;;;;;;;13.30;9.50;;;;;;;6.91;90.74;102080.27;109276;1254;73235;-71
2023/04/18 05:28:12;;;;;;;13.60;10.00;;;;;;;6.95;90.27;102085.42;109257;1254;70944;-71
2023/04/18 05:30:39;;;;;;;13.90;9.60;;;;;;;7.01;90.43;102087.16;109259;1255;72351;-72
2023/04/18 05:33:06;;;;;;;13.70;9.20;;;;;;;7.06;90.36;102085.36;109386;1252;61679;-71
2023/04/18 05:35:33;;;;;;;13.70;9.70;;;;;;;7.09;90.12;102091.08;109425;1253;59382;-71
2023/04/18 05:37:59;;;;;;;12.00;9.20;;;;;;;7.13;89.92;102092.88;109394;1254;74634;-71
2023/04/18 05:40:27;;;;;;;12.70;9.50;;;;;;;7.15;89.50;102095.55;109356;1253;72467;-71
2023/04/18 05:42:53;;;;;;;11.90;8.70;;;;;;;7.17;89.28;102091.38;109260;1253;71800;-72
2023/04/18 05:45:20;;;;;;;13.50;9.60;;;;;;;7.20;88.98;102095.33;109384;1254;59628;-72
2023/04/18 05:47:47;;;;;;;11.30;8.70;;;;;;;7.22;88.82;102096.59;109274;1254;60036;-71
2023/04/18 05:50:14;;;;;;;13.10;9.30;;;;;;;7.22;88.47;102096.73;109415;1256;73251;-71
2023/04/18 05:52:40;;;;;;;13.20;9.70;;;;;;;7.21;88.24;102099.97;109399;1254;70873;-71
2023/04/18 05:55:08;;;;;;;12.20;8.80;;;;;;;7.19;88.00;102102.80;109238;1253;59449;-71
2023/04/18 05:57:35;;;;;;;12.20;9.60;;;;;;;7.17;88.02;102102.95;109451;1254;62251;-71
2023/04/18 06:00:05;;;;;;;13.10;9.80;;;;;;;7.15;87.86;102109.80;109390;1253;59573;-71
2023/04/18 06:02:32;;;;;;;12.20;9.60;;;;;;;7.13;87.93;102107.80;109334;1253;73114;-71
2023/04/18 06:05:00;;;;;;;13.30;9.60;;;;;;;7.14;87.69;102112.71;109236;1254;71220;-71
2023/04/18 06:07:27;;;;;;;12.60;9.30;;;;;;;7.14;87.61;102113.19;109458;1252;71671;-71
2023/04/18 06:09:55;;;;;;;14.50;10.20;;;;;;;7.11;87.47;102113.27;109316;1253;60907;-71
2023/04/18 06:12:22;;;;;;;13.40;9.50;;;;;;;7.08;87.53;102112.45;109300;1254;59040;-71
2023/04/18 06:14:49;;;;;;;13.10;9.50;;;;;;;7.08;87.26;102116.35;109360;1254;74197;-71
2023/04/18 06:17:16;;;;;;;13.40;9.90;;;;;;;7.07;87.84;102119.02;109269;1253;70894;-71
2023/04/18 06:19:43;;;;;;;14.70;10.30;;;;;;;7.09;87.55;102120.31;109359;1253;71133;-71
2023/04/18 06:22:10;;;;;;;14.00;10.10;;;;;;;7.11;87.54;102121.52;109228;1254;59648;-70
2023/04/18 06:24:37;;;;;;;14.60;10.30;;;;;;;7.16;87.68;102126.02;109242;1252;59083;-70
2023/04/18 06:27:04;;;;;;;13.50;9.60;;;;;;;7.23;87.38;102129.77;109355;1254;75810;-71
2023/04/18 06:29:32;;;;;;;13.60;9.70;;;;;;;7.26;87.18;102130.55;109388;1254;71858;-71
2023/04/18 06:31:58;;;;;;;14.40;10.10;;;;;;;7.30;86.91;102131.17;109418;1254;72449;-71
2023/04/18 06:34:25;;;;;;;13.90;10.00;;;;;;;7.30;86.85;102128.29;109162;1253;61257;-71
2023/04/18 06:36:52;;;;;;;12.20;9.60;;;;;;;7.38;86.73;102134.42;109436;1253;59114;-70
2023/04/18 06:39:19;;;;;;;12.50;9.80;;;;;;;7.45;86.40;102135.45;109383;1253;74463;-71
2023/04/18 06:41:47;;;;;;;13.50;9.70;;;;;;;7.54;85.93;102137.27;109294;1254;70963;-71
2023/04/18 06:44:14;;;;;;;12.80;9.80;;;;;;;7.59;85.68;102141.55;109432;1254;72392;-71
2023/04/18 06:46:41;;;;;;;13.90;10.30;;;;;;;7.65;85.22;102138.66;109095;1260;61261;-71
2023/04/18 06:49:08;;;;;;;12.20;9.60;;;;;;;7.72;85.38;102144.03;109307;1253;60066;-71
2023/04/18 06:51:35;;;;;;;11.80;8.90;;;;;;;7.79;84.70;102144.99;109461;1254;74589;-71
2023/04/18 06:54:02;;;;;;;13.10;9.60;;;;;;;7.81;84.14;102146.73;109260;1254;69868;-70
2023/04/18 06:56:29;;;;;;;12.40;9.30;;;;;;;7.84;83.97;102149.00;109454;1253;72403;-71
2023/04/18 06:58:57;;;;;;;13.30;9.80;;;;;;;7.87;83.99;102150.33;109204;1254;59899;-71
2023/04/18 07:01:24;;;;;;;13.70;10.20;;;;;;;7.90;83.75;102151.31;109276;1253;59257;-70
2023/04/18 07:03:50;;;;;;;12.70;9.30;;;;;;;7.90;83.34;102150.80;109455;1253;74690;-70
2023/04/18 07:06:17;;;;;;;13.30;9.70;;;;;;;7.89;83.09;102153.88;109473;1253;71388;-70
2023/04/18 07:08:44;;;;;;;12.60;9.80;;;;;;;7.91;83.27;102155.10;109343;1253;72764;-70
2023/04/18 07:11:12;;;;;;;14.40;10.70;;;;;;;7.99;83.49;102151.85;109413;1253;59937;-70
2023/04/18 07:13:38;;;;;;;13.40;10.30;;;;;;;8.06;83.04;102154.09;109154;1253;59168;-70
2023/04/18 07:16:06;;;;;;;13.10;10.40;;;;;;;8.05;82.51;102155.74;109326;1253;74308;-70
2023/04/18 07:18:33;;;;;;;12.60;9.80;;;;;;;8.05;82.41;102161.39;109374;1254;71136;-70
2023/04/18 07:21:07;;;;;;;12.20;9.50;;;;;;;8.06;81.82;102158.19;109166;1252;71760;-70
2023/04/18 07:23:34;;;;;;;13.70;10.00;;;;;;;8.03;81.38;102158.36;109424;1253;59898;-70
2023/04/18 07:26:04;;;;;;;13.40;9.40;;;;;;;8.04;81.40;102160.45;109408;1254;59008;-71
2023/04/18 07:28:33;;;;;;;13.30;10.30;;;;;;;8.03;80.80;102160.51;109255;1253;73222;-71
2023/04/18 07:31:01;;;;;;;11.70;9.00;;;;;;;7.96;80.32;102162.25;109404;1253;70883;-71
2023/04/18 07:33:32;;;;;;;12.30;9.40;;;;;;;7.90;80.52;102162.04;109408;1254;71463;-70
2023/04/18 07:36:00;;;;;;;11.70;9.40;;;;;;;7.88;80.94;102168.02;109454;1254;61241;-70
2023/04/18 07:38:27;;;;;;;13.80;10.10;;;;;;;7.90;81.07;102166.31;109125;1253;59439;-71
2023/04/18 07:40:58;;;;;;;12.80;9.90;;;;;;;7.91;80.91;102165.88;109385;1252;74307;-70
2023/04/18 07:43:25;;;;;;;11.50;9.60;;;;;;;7.95;81.11;102166.63;109306;1254;71296;-70
2023/04/18 07:45:52;;;;;;;11.90;9.70;;;;;;;8.01;80.92;102166.45;109293;1254;72714;-70
2023/04/18 07:48:23;;;;;;;12.90;9.80;;;;;;;8.07;80.89;102168.44;109274;1254;60997;-70
2023/04/18 07:50:50;;;;;;;12.10;9.50;;;;;;;8.15;80.60;102167.63;109179;1252;60418;-70
2023/04/18 07:53:17;;;;;;;11.80;8.90;;;;;;;8.26;80.35;102172.92;109413;1254;74668;-70
2023/04/18 07:55:45;;;;;;;11.70;9.10;;;;;;;8.33;79.53;102172.52;109143;1253;70286;-71
2023/04/18 07:58:12;;;;;;;11.50;9.20;;;;;;;8.41;79.49;102173.89;109162;1253;72475;-71
2023/04/18 08:00:41;;;;;;;11.70;8.70;;;;;;;8.52;79.44;102179.17;109264;1253;59976;-70
2023/04/18 08:03:11;;;;;;;12.10;9.30;;;;;;;8.66;78.76;102175.75;109365;1254;59478;-71
2023/04/18 08:05:39;;;;;;;11.40;8.50;;;;;;;8.86;78.76;102173.85;109307;1254;75651;-71
2023/04/18 08:08:07;;;;;;;10.50;8.60;;;;;;;9.09;78.11;102173.89;109426;1254;69724;-71
2023/04/18 08:10:34;;;;;;;12.00;8.90;;;;;;;9.35;77.83;102174.77;109401;1253;74100;-71
2023/04/18 08:13:02;;;;;;;10.80;8.70;;;;;;;9.65;77.55;102172.33;109381;1252;59999;-71
2023/04/18 08:15:31;;;;;;;12.10;8.70;;;;;;;9.95;76.11;102174.30;109218;1253;60318;-71
2023/04/18 08:17:58;;;;;;;10.30;7.80;;;;;;;10.25;74.91;102173.48;109408;1253;74633;-71
2023/04/18 08:20:25;;;;;;;11.20;8.70;;;;;;;10.50;73.30;102175.17;109179;1252;70053;-71
2023/04/18 08:22:52;;;;;;;10.60;7.80;;;;;;;10.91;73.68;102172.86;109292;1253;72660;-71
2023/04/18 08:25:32;;;;;;;9.00;7.60;;;;;;;11.31;71.24;102173.93;109388;1253;59894;-72
2023/04/18 08:27:58;;;;;;;10.50;8.00;;;;;;;11.52;69.95;102171.66;109266;1252;58724;-71
2023/04/18 08:30:25;;;;;;;8.40;6.90;;;;;;;11.74;69.51;102173.43;109428;1253;73588;-72
2023/04/18 08:32:52;;;;;;;9.30;7.20;;;;;;;11.88;67.95;102174.48;109374;1253;70383;-71
2023/04/18 08:35:19;;;;;;;9.00;7.50;;;;;;;11.90;66.76;102172.02;109391;1252;72420;-71
2023/04/18 08:37:46;;;;;;;8.90;7.00;;;;;;;11.88;66.43;102170.17;109424;1252;60480;-71
2023/04/18 08:40:13;;;;;;;7.80;6.60;;;;;;;11.81;65.89;102174.33;109417;1253;59469;-71
2023/04/18 08:42:43;;;;;;;9.70;7.00;;;;;;;11.77;66.19;102167.32;109282;1254;74641;-71
2023/04/18 08:45:12;;;;;;;10.00;7.00;;;;;;;11.81;67.01;102166.91;109319;1253;69474;-71
2023/04/18 08:47:40;;;;;;;9.30;7.20;;;;;;;11.91;66.37;102172.60;109247;1253;73629;-71
2023/04/18 08:50:08;;;;;;;8.80;7.00;;;;;;;12.03;66.75;102172.66;109201;1254;61923;-71
2023/04/18 08:52:37;;;;;;;8.50;6.80;;;;;;;12.20;66.27;102170.45;109324;1254;60110;-71
2023/04/18 08:55:05;;;;;;;9.00;7.30;;;;;;;12.41;65.28;102170.73;109307;1253;73381;-71
2023/04/18 08:57:32;;;;;;;9.10;6.80;;;;;;;12.56;64.66;102172.23;109370;1253;71265;-71
2023/04/18 09:00:07;;;;;;;8.10;6.70;;;;;;;12.75;64.30;102176.13;109453;1253;71111;-71
2023/04/18 09:02:41;;;;;;;7.60;6.80;;;;;;;12.87;63.40;102175.23;109146;1253;60680;-71
2023/04/18 09:05:15;;;;;;;7.70;6.20;;;;;;;12.85;62.67;102176.31;109282;1252;60446;-71
2023/04/18 09:07:43;;;;;;;7.80;6.20;;;;;;;12.78;62.15;102176.35;109331;1254;74606;-71
2023/04/18 09:10:11;;;;;;;7.00;5.70;;;;;;;12.83;62.46;102177.06;109251;1253;70231;-72
2023/04/18 09:12:50;;;;;;;8.70;6.20;;;;;;;12.93;61.97;102176.18;109309;1254;72679;-72
2023/04/18 09:15:22;;;;;;;7.20;5.90;;;;;;;12.97;61.51;102180.95;109289;1253;59128;-72
2023/04/18 09:17:53;;;;;;;7.80;6.40;;;;;;;12.93;61.40;102184.70;109137;1253;61754;-72
2023/04/18 09:20:36;;;;;;;7.20;5.70;;;;;;;12.90;61.29;102183.95;109085;1253;72917;-72
2023/04/18 09:23:13;;;;;;;6.60;5.40;;;;;;;12.86;61.35;102186.01;109256;1254;71299;-72
2023/04/18 09:25:47;;;;;;;7.70;6.00;;;;;;;12.89;61.31;102184.97;109031;1253;71479;-72
2023/04/18 09:28:22;;;;;;;6.70;5.20;;;;;;;12.95;61.33;102189.86;109129;1253;59159;-72
2023/04/18 09:30:53;;;;;;;7.40;5.50;;;;;;;13.03;60.84;102183.21;109293;1253;59185;-72
2023/04/18 09:33:32;;;;;;;6.40;5.30;;;;;;;13.13;60.43;102182.56;109205;1253;74709;-72
2023/04/18 09:36:36;;;;;;;7.90;6.10;;;;;;;13.24;60.42;102180.38;109433;1252;69990;-72
2023/04/18 09:39:03;;;;;;;8.00;5.90;;;;;;;13.41;60.11;102176.68;108823;1259;72749;-72
2023/04/18 09:41:31;;;;;;;8.10;5.90;;;;;;;13.46;59.57;102177.65;109286;1253;59334;-71
2023/04/18 09:44:10;;;;;;;7.00;5.70;;;;;;;13.56;59.16;102178.27;109307;1254;59135;-72
2023/04/18 09:46:41;;;;;;;6.60;5.00;;;;;;;13.61;58.10;102173.40;109306;1253;73823;-72
2023/04/18 09:49:11;;;;;;;8.20;5.20;;;;;;;13.65;57.54;102175.85;109182;1254;71741;-72
2023/04/18 09:51:40;;;;;;;7.70;5.30;;;;;;;13.73;57.63;102176.13;109437;1253;71155;-72
2023/04/18 09:54:09;;;;;;;8.70;5.10;;;;;;;13.85;57.22;102177.11;109151;1253;59616;-72
2023/04/18 09:56:39;;;;;;;6.70;4.70;;;;;;;13.88;56.16;102179.02;109346;1253;60460;-72
2023/04/18 09:59:08;;;;;;;5.80;4.30;;;;;;;13.83;55.61;102181.20;109435;1253;77095;-72
2023/04/18 10:01:35;;;;;;;5.90;4.70;;;;;;;13.88;54.96;102174.36;109365;1253;71548;-72
2023/04/18 10:04:05;;;;;;;5.90;4.60;;;;;;;13.99;54.60;102181.60;109404;1252;72731;-72
2023/04/18 10:06:40;;;;;;;6.90;4.60;;;;;;;14.04;54.96;102183.69;109392;1253;59738;-73
2023/04/18 10:09:08;;;;;;;7.60;5.20;;;;;;;14.04;55.31;102183.70;109165;1254;60352;-72
2023/04/18 10:11:35;;;;;;;7.20;5.50;;;;;;;13.95;55.79;102177.69;109405;1253;74658;-70
2023/04/18 10:14:05;;;;;;;6.40;5.50;;;;;;;13.88;56.03;102179.13;109278;1254;71276;-72
2023/04/18 10:16:32;;;;;;;6.40;4.90;;;;;;;13.74;55.57;102177.23;109411;1253;71934;-72
2023/04/18 10:19:26;;;;;;;6.50;4.50;;;;;;;13.56;55.04;102177.70;109290;1253;59255;-72
2023/04/18 10:22:00;;;;;;;6.40;4.80;;;;;;;13.37;55.13;102177.52;109365;1252;60914;-72
2023/04/18 10:24:48;;;;;;;5.40;4.30;;;;;;;13.32;55.66;102182.05;109367;1253;74708;-71
2023/04/18 10:27:16;;;;;;;5.80;4.70;;;;;;;13.36;55.91;102183.65;109322;1253;70995;-72
2023/04/18 10:29:51;;;;;;;5.60;4.40;;;;;;;13.48;56.19;102184.54;109219;1252;71799;-72
2023/04/18 10:32:20;;;;;;;6.80;4.70;;;;;;;13.59;55.69;102180.00;109271;1253;59105;-72
2023/04/18 10:34:52;;;;;;;5.70;4.40;;;;;;;13.57;54.65;102180.27;109417;1253;58879;-72
2023/04/18 10:37:19;;;;;;;6.30;4.80;;;;;;;13.54;54.60;102180.04;109325;1253;73743;-71
2023/04/18 10:40:07;;;;;;;5.80;4.50;;;;;;;13.52;54.47;102176.85;109259;1254;69746;-72
2023/04/18 10:42:45;;;;;;;5.90;4.50;;;;;;;13.59;55.01;102173.86;109319;1253;72496;-72
2023/04/18 10:45:23;;;;;;;4.90;4.00;;;;;;;13.72;54.54;102168.91;109378;1252;59654;-72
2023/04/18 10:48:10;;;;;;;5.60;4.50;;;;;;;13.78;53.79;102167.98;109298;1254;60266;-72
2023/04/18 10:51:11;;;;;;;4.40;3.90;;;;;;;13.88;53.71;102168.52;109442;1253;72936;-72
2023/04/18 10:53:39;;;;;;;5.40;3.60;;;;;;;14.12;52.91;102170.64;109406;1253;69647;-72
2023/04/18 10:56:08;;;;;;;5.00;4.00;;;;;;;14.25;52.18;102165.71;109176;1253;71493;-71
2023/04/18 10:58:35;;;;;;;6.80;4.50;;;;;;;14.41;51.88;102164.52;109246;1253;59395;-71
2023/04/18 11:01:03;;;;;;;5.20;4.20;;;;;;;14.57;52.26;102163.52;109298;1252;58821;-72
2023/04/18 11:03:33;;;;;;;5.40;4.20;;;;;;;14.57;51.24;102166.16;109469;1252;74649;-72
2023/04/18 11:06:03;;;;;;;5.40;4.20;;;;;;;14.55;50.90;102162.69;109170;1253;72376;-72
2023/04/18 11:08:30;;;;;;;7.00;4.40;;;;;;;14.57;51.45;102163.90;109271;1253;73874;-73
2023/04/18 11:11:02;;;;;;;5.50;3.80;;;;;;;14.59;51.01;102161.89;109340;1253;59388;-73
2023/04/18 11:13:30;;;;;;;5.60;4.30;;;;;;;14.47;50.79;102168.16;109264;1253;58850;-73
2023/04/18 11:15:57;;;;;;;5.50;4.10;;;;;;;14.45;51.10;102169.79;109305;1252;73327;-73
2023/04/18 11:18:24;;;;;;;5.20;4.00;;;;;;;14.46;50.69;102166.98;109325;1252;71127;-73
2023/04/18 11:20:51;;;;;;;5.20;4.10;;;;;;;14.51;50.07;102166.98;109298;1253;72455;-73
2023/04/18 11:23:24;;;;;;;5.30;4.10;;;;;;;14.57;50.19;102168.23;109397;1253;59590;-73